Time;durP1;ratioP1;P1;durP2;ratioP2;P2;SDS_P1;SDS_P2;PMS_P1;PMS_P2;Temp;Humidity;BMP_temperature;BMP_pressure;BME280_temperature;BME280_humidity;BME280_pressure;Samples;Min_cycle;Max_cycle;Signal;HPM_P1;HPM_P2
2022/05/09 00:01:35;;;;;;;8.67;3.10;;;14.90;93.40;;;;;;5017165;28;20703;-75
2022/05/09 00:04:04;;;;;;;5.30;2.53;;;14.90;93.40;;;;;;4999905;28;20292;-74
2022/05/09 00:06:30;;;;;;;5.47;2.50;;;15.00;93.40;;;;;;5005563;28;20209;-75
2022/05/09 00:08:57;;;;;;;7.20;2.60;;;14.90;93.40;;;;;;5008668;28;20538;-74
2022/05/09 00:11:23;;;;;;;10.27;3.20;;;14.90;93.50;;;;;;5008747;28;20260;-74
2022/05/09 00:13:50;;;;;;;9.30;2.57;;;15.00;93.60;;;;;;5008074;28;20715;-75
2022/05/09 00:16:17;;;;;;;7.43;2.97;;;14.90;93.70;;;;;;5008702;28;20263;-74
2022/05/09 00:18:44;;;;;;;5.90;2.70;;;14.90;93.70;;;;;;5008879;28;20220;-75
2022/05/09 00:21:12;;;;;;;7.70;3.20;;;14.90;93.90;;;;;;5008621;28;20205;-74
2022/05/09 00:23:39;;;;;;;7.53;2.57;;;14.90;94.00;;;;;;5008192;28;20205;-75
2022/05/09 00:26:06;;;;;;;9.70;2.70;;;14.80;94.10;;;;;;5008090;28;20707;-74
2022/05/09 00:28:32;;;;;;;7.70;2.73;;;14.80;94.20;;;;;;5008337;28;20206;-74
2022/05/09 00:30:59;;;;;;;9.47;2.63;;;14.80;94.20;;;;;;5008139;28;20730;-74
2022/05/09 00:33:26;;;;;;;5.80;2.60;;;14.80;94.30;;;;;;5008251;28;20628;-74
2022/05/09 00:35:53;;;;;;;6.60;2.63;;;14.80;94.40;;;;;;5008340;28;20205;-74
2022/05/09 00:38:21;;;;;;;6.77;2.90;;;14.80;94.50;;;;;;5007742;28;20213;-73
2022/05/09 00:43:32;;;;;;;6.07;2.77;;;14.70;94.40;;;;;;5000392;28;20216;-76
2022/05/09 00:45:58;;;;;;;11.00;3.03;;;14.60;94.50;;;;;;5008219;28;20646;-76
2022/05/09 00:48:25;;;;;;;8.17;2.97;;;14.60;94.60;;;;;;5008539;28;20213;-76
2022/05/09 00:50:52;;;;;;;10.90;2.87;;;14.50;95.10;;;;;;5007979;28;20209;-76
2022/05/09 00:53:21;;;;;;;7.10;2.97;;;14.50;94.90;;;;;;5007511;28;20259;-75
2022/05/09 00:55:51;;;;;;;9.30;2.90;;;14.50;94.90;;;;;;5008131;28;20209;-75
2022/05/09 00:58:24;;;;;;;7.60;2.63;;;14.50;95.00;;;;;;5006807;28;20226;-73
2022/05/09 01:00:52;;;;;;;6.10;3.10;;;14.40;95.20;;;;;;4992845;28;20194;-73
2022/05/09 01:03:22;;;;;;;10.23;3.73;;;14.30;95.20;;;;;;5007213;28;20240;-73
2022/05/09 01:05:51;;;;;;;9.93;3.50;;;14.30;95.40;;;;;;5007573;28;20911;-74
2022/05/09 01:08:17;;;;;;;10.43;3.37;;;14.30;95.40;;;;;;5007512;28;20230;-74
2022/05/09 01:10:47;;;;;;;9.13;3.10;;;14.30;95.50;;;;;;5007964;28;20209;-75
2022/05/09 01:13:15;;;;;;;7.03;3.17;;;14.30;95.60;;;;;;5007618;28;20212;-74
2022/05/09 01:15:48;;;;;;;8.87;3.67;;;14.20;95.60;;;;;;5007876;28;20205;-74
2022/05/09 01:18:16;;;;;;;9.53;3.27;;;14.20;95.50;;;;;;5008333;28;20201;-74
2022/05/09 01:20:43;;;;;;;6.87;3.23;;;14.20;95.60;;;;;;5007634;28;20796;-75
2022/05/09 01:23:11;;;;;;;5.40;3.07;;;14.10;95.70;;;;;;5007658;28;20205;-74
2022/05/09 01:25:39;;;;;;;9.33;3.10;;;14.10;95.60;;;;;;5007594;28;20233;-73
2022/05/09 01:28:06;;;;;;;7.77;3.30;;;14.10;95.70;;;;;;5007113;28;20279;-72
2022/05/09 01:30:42;;;;;;;9.60;3.20;;;14.00;95.80;;;;;;5007259;28;20202;-72
2022/05/09 01:33:16;;;;;;;7.13;2.80;;;14.00;95.90;;;;;;5007446;28;20212;-72
2022/05/09 01:35:49;;;;;;;7.37;3.60;;;14.00;95.90;;;;;;5007355;28;20316;-78
2022/05/09 01:38:23;;;;;;;8.23;3.17;;;14.00;95.80;;;;;;5006596;28;20801;-78
2022/05/09 01:40:49;;;;;;;8.10;3.43;;;13.90;96.00;;;;;;5007630;28;20727;-76
2022/05/09 01:43:29;;;;;;;10.70;2.93;;;13.90;96.00;;;;;;5007681;28;20716;-76
2022/05/09 01:45:55;;;;;;;9.37;3.07;;;13.90;96.10;;;;;;5007708;28;20225;-75
2022/05/09 01:51:06;;;;;;;5.83;2.83;;;13.80;96.30;;;;;;5007292;28;20209;-72
2022/05/09 01:53:34;;;;;;;7.33;3.20;;;13.80;96.30;;;;;;5006908;28;20217;-73
2022/05/09 01:56:01;;;;;;;7.57;3.10;;;13.80;96.30;;;;;;5006665;28;20689;-73
2022/05/09 01:58:30;;;;;;;5.90;2.70;;;13.70;96.30;;;;;;5004069;28;20218;-73
2022/05/09 02:00:57;;;;;;;5.60;2.63;;;13.70;96.40;;;;;;5008024;28;20210;-73
2022/05/09 02:03:23;;;;;;;9.00;2.87;;;13.70;96.40;;;;;;5002517;28;20246;-73
2022/05/09 02:05:50;;;;;;;6.23;2.87;;;13.70;96.40;;;;;;4989831;28;20238;-73
2022/05/09 02:08:17;;;;;;;6.67;2.47;;;13.60;96.50;;;;;;5006578;28;20252;-72
2022/05/09 02:10:45;;;;;;;7.30;3.57;;;13.60;96.70;;;;;;5010405;28;20220;-73
2022/05/09 02:13:12;;;;;;;8.17;3.07;;;13.40;96.70;;;;;;5010755;28;20234;-73
2022/05/09 02:15:38;;;;;;;6.50;2.87;;;13.50;96.90;;;;;;5010928;28;20209;-73
2022/05/09 02:18:05;;;;;;;8.80;3.30;;;13.50;97.10;;;;;;4997898;28;20624;-73
2022/05/09 02:20:32;;;;;;;4.70;3.10;;;13.30;96.90;;;;;;4992816;28;20268;-73
2022/05/09 02:22:58;;;;;;;6.53;2.53;;;13.30;97.50;;;;;;5010782;28;20213;-72
2022/05/09 02:25:29;;;;;;;8.63;3.53;;;13.30;97.20;;;;;;5010412;28;20234;-73
2022/05/09 02:27:57;;;;;;;5.80;3.40;;;13.30;97.30;;;;;;5010487;28;20209;-73
2022/05/09 02:30:24;;;;;;;6.67;3.10;;;13.30;97.40;;;;;;5010287;28;20213;-73
2022/05/09 02:32:52;;;;;;;6.17;2.90;;;13.30;97.40;;;;;;5010708;28;20213;-72
2022/05/09 02:35:20;;;;;;;6.17;2.80;;;13.30;97.50;;;;;;5015394;28;20216;-74
2022/05/09 02:37:47;;;;;;;9.43;3.30;;;13.30;97.40;;;;;;5030256;28;20316;-74
2022/05/09 02:40:14;;;;;;;9.37;2.90;;;13.30;97.60;;;;;;5029779;28;20213;-73
2022/05/09 02:42:40;;;;;;;6.73;2.70;;;13.20;97.70;;;;;;5016852;28;20218;-73
2022/05/09 02:45:10;;;;;;;3.50;2.97;;;13.20;97.90;;;;;;5009882;28;20716;-73
2022/05/09 02:47:36;;;;;;;5.03;3.07;;;13.20;98.00;;;;;;4990487;28;20213;-73
2022/05/09 02:50:03;;;;;;;7.17;3.10;;;13.20;98.10;;;;;;5003286;28;20202;-73
2022/05/09 02:52:30;;;;;;;8.20;3.17;;;13.20;98.10;;;;;;5009873;28;20259;-73
2022/05/09 02:54:57;;;;;;;7.13;3.27;;;13.20;98.10;;;;;;5009427;28;20206;-73
2022/05/09 02:57:24;;;;;;;10.63;3.10;;;13.20;98.20;;;;;;5009608;28;20242;-73
2022/05/09 02:59:50;;;;;;;7.23;3.33;;;13.10;98.20;;;;;;5021795;28;20647;-71
2022/05/09 03:02:18;;;;;;;8.17;3.33;;;13.00;98.20;;;;;;5012303;28;20252;-71
2022/05/09 03:04:45;;;;;;;10.17;3.63;;;12.90;98.60;;;;;;4994796;28;20261;-72
2022/05/09 03:07:13;;;;;;;10.77;3.47;;;12.90;98.70;;;;;;4989947;28;20588;-74
2022/05/09 03:09:42;;;;;;;8.57;3.70;;;12.90;98.80;;;;;;4990152;28;20260;-76
2022/05/09 03:12:10;;;;;;;8.33;2.90;;;12.90;98.90;;;;;;4989898;28;20676;-76
2022/05/09 03:14:37;;;;;;;8.10;3.40;;;12.90;99.00;;;;;;4994363;28;20217;-75
2022/05/09 03:17:05;;;;;;;11.00;3.50;;;12.90;99.00;;;;;;4990108;28;20259;-75
2022/05/09 03:19:34;;;;;;;9.77;3.60;;;12.80;99.00;;;;;;5006361;28;20209;-75
2022/05/09 03:22:01;;;;;;;10.27;3.37;;;12.80;99.20;;;;;;5004946;28;20209;-75
2022/05/09 03:24:28;;;;;;;7.37;3.73;;;12.80;99.30;;;;;;5005082;28;20640;-76
2022/05/09 03:26:54;;;;;;;6.87;3.40;;;12.90;99.30;;;;;;5005144;28;20229;-75
2022/05/09 03:29:24;;;;;;;8.67;3.10;;;12.80;99.30;;;;;;5005208;28;20205;-72
2022/05/09 03:31:52;;;;;;;9.50;3.30;;;12.80;99.50;;;;;;5005139;28;20306;-73
2022/05/09 03:34:20;;;;;;;9.63;4.00;;;12.80;99.60;;;;;;5005470;28;20216;-72
2022/05/09 03:36:48;;;;;;;6.57;3.33;;;12.80;99.60;;;;;;5005791;28;20287;-75
2022/05/09 03:39:15;;;;;;;12.83;3.80;;;12.70;99.80;;;;;;5005023;28;20209;-75
2022/05/09 03:41:41;;;;;;;8.63;3.40;;;12.60;99.90;;;;;;5005478;28;20209;-75
2022/05/09 03:44:08;;;;;;;9.13;4.33;;;12.70;99.90;;;;;;5005561;28;20408;-75
2022/05/09 03:46:34;;;;;;;7.17;3.83;;;12.50;99.90;;;;;;5005131;28;20337;-75
2022/05/09 03:49:01;;;;;;;10.30;3.73;;;12.50;99.90;;;;;;5005436;28;20209;-74
2022/05/09 03:51:28;;;;;;;8.33;3.73;;;12.40;99.90;;;;;;5004675;28;20249;-75
2022/05/09 03:53:56;;;;;;;8.87;3.87;;;12.50;99.90;;;;;;5005139;28;20210;-75
2022/05/09 03:56:23;;;;;;;6.53;3.57;;;12.50;99.90;;;;;;5004913;28;20331;-75
2022/05/09 03:58:49;;;;;;;10.23;4.23;;;12.40;99.90;;;;;;5006273;28;20225;-75
2022/05/09 04:01:16;;;;;;;8.70;4.00;;;12.30;99.90;;;;;;5006891;28;20206;-75
2022/05/09 04:03:43;;;;;;;8.63;4.10;;;12.30;99.90;;;;;;5002229;28;20202;-75
2022/05/09 04:06:09;;;;;;;6.50;3.93;;;12.40;99.90;;;;;;4994911;28;20232;-75
2022/05/09 04:08:36;;;;;;;6.57;3.57;;;12.20;99.90;;;;;;5008557;28;20205;-75
2022/05/09 04:11:06;;;;;;;9.60;3.90;;;12.20;99.90;;;;;;5008809;28;20263;-75
2022/05/09 04:13:34;;;;;;;10.07;4.53;;;12.20;99.90;;;;;;5008937;28;20202;-76
2022/05/09 04:18:45;;;;;;;7.63;3.90;;;12.00;99.90;;;;;;5005704;28;20321;-75
2022/05/09 04:21:13;;;;;;;8.57;3.93;;;12.20;99.90;;;;;;4997297;28;20201;-75
2022/05/09 04:23:40;;;;;;;6.83;4.13;;;12.30;99.90;;;;;;5002615;28;20198;-75
2022/05/09 04:26:12;;;;;;;9.13;3.70;;;12.20;99.90;;;;;;4996601;28;20230;-75
2022/05/09 04:28:39;;;;;;;9.50;4.20;;;12.30;99.90;;;;;;5001405;28;20680;-75
2022/05/09 04:31:05;;;;;;;6.80;3.80;;;12.30;99.90;;;;;;5000868;28;20224;-75
2022/05/09 04:33:33;;;;;;;9.77;3.93;;;12.40;99.90;;;;;;4998818;28;20248;-76
2022/05/09 04:36:00;;;;;;;13.77;4.67;;;12.30;99.90;;;;;;5000233;28;20202;-75
2022/05/09 04:38:26;;;;;;;14.90;4.80;;;12.30;99.90;;;;;;4999926;28;20289;-75
2022/05/09 04:40:56;;;;;;;8.40;4.23;;;12.20;99.90;;;;;;4999721;28;20786;-75
2022/05/09 04:43:28;;;;;;;11.27;4.97;;;12.20;99.90;;;;;;5002704;28;20205;-75
2022/05/09 04:45:55;;;;;;;10.20;3.90;;;12.00;99.90;;;;;;5000279;28;20605;-75
2022/05/09 04:48:22;;;;;;;14.60;4.80;;;12.10;99.90;;;;;;5003892;28;20209;-75
2022/05/09 04:50:49;;;;;;;14.23;4.90;;;11.90;99.90;;;;;;4999091;28;20609;-75
2022/05/09 04:53:17;;;;;;;13.33;4.27;;;11.80;99.90;;;;;;4996133;28;20209;-75
2022/05/09 04:55:44;;;;;;;12.43;4.50;;;11.80;99.90;;;;;;4999082;28;20230;-75
2022/05/09 04:58:13;;;;;;;9.20;4.83;;;12.00;99.90;;;;;;4999102;28;20709;-75
2022/05/09 05:00:41;;;;;;;8.87;4.63;;;12.00;99.90;;;;;;5001578;28;20251;-75
2022/05/09 05:03:08;;;;;;;10.07;4.60;;;12.10;99.90;;;;;;5003419;28;21118;-75
2022/05/09 05:05:35;;;;;;;12.20;4.23;;;12.10;99.90;;;;;;4998943;28;20221;-75
2022/05/09 05:08:03;;;;;;;8.47;4.27;;;12.20;99.90;;;;;;5001572;28;20202;-75
2022/05/09 05:10:31;;;;;;;4.77;3.90;;;12.30;99.90;;;;;;5001197;28;20229;-73
2022/05/09 05:12:59;;;;;;;9.50;4.50;;;12.20;99.90;;;;;;4999909;28;20197;-73
2022/05/09 05:15:26;;;;;;;9.67;4.40;;;12.20;99.90;;;;;;4997070;28;20229;-73
2022/05/09 05:17:54;;;;;;;8.60;4.30;;;12.30;99.90;;;;;;4994795;28;20223;-76
2022/05/09 05:20:21;;;;;;;7.87;5.07;;;12.40;99.90;;;;;;5000244;28;20211;-75
2022/05/09 05:22:49;;;;;;;9.80;4.93;;;12.50;99.90;;;;;;5000956;28;20252;-75
2022/05/09 05:25:18;;;;;;;9.30;4.70;;;12.50;99.90;;;;;;5000743;28;20598;-76
2022/05/09 05:27:47;;;;;;;6.83;4.80;;;12.50;99.90;;;;;;4998822;28;20591;-76
2022/05/09 05:30:14;;;;;;;5.93;4.43;;;12.40;99.90;;;;;;4998836;28;20198;-76
2022/05/09 05:32:42;;;;;;;7.93;4.80;;;12.40;99.90;;;;;;4996321;28;20210;-74
2022/05/09 05:35:13;;;;;;;13.83;4.90;;;12.50;99.90;;;;;;5000231;28;20562;-75
2022/05/09 05:37:41;;;;;;;12.73;5.17;;;12.40;99.90;;;;;;4999663;28;20264;-75
2022/05/09 05:40:09;;;;;;;11.23;5.20;;;12.40;99.90;;;;;;4997322;28;20730;-76
2022/05/09 05:42:38;;;;;;;13.13;4.93;;;12.50;99.90;;;;;;5004149;28;20656;-76
2022/05/09 05:45:06;;;;;;;8.80;5.00;;;12.60;99.90;;;;;;5006620;28;20263;-75
2022/05/09 05:47:36;;;;;;;6.53;4.67;;;12.80;99.90;;;;;;5003200;28;20328;-76
2022/05/09 05:50:03;;;;;;;9.53;4.90;;;12.80;99.90;;;;;;5005032;28;20802;-76
2022/05/09 05:52:31;;;;;;;7.10;5.37;;;12.90;99.90;;;;;;5004025;28;20799;-76
2022/05/09 05:54:58;;;;;;;6.53;4.93;;;12.90;99.90;;;;;;5001924;28;20229;-75
2022/05/09 05:57:26;;;;;;;6.73;5.13;;;13.00;99.90;;;;;;4997460;28;20795;-73
2022/05/09 05:59:55;;;;;;;6.27;4.47;;;13.10;99.90;;;;;;5002696;28;20225;-74
2022/05/09 06:02:22;;;;;;;10.50;5.60;;;13.10;99.90;;;;;;5002746;28;20233;-75
2022/05/09 06:04:49;;;;;;;8.97;5.07;;;13.20;99.90;;;;;;5004136;28;20306;-75
2022/05/09 06:07:16;;;;;;;8.70;4.83;;;13.30;99.90;;;;;;5005309;28;20264;-75
2022/05/09 06:09:45;;;;;;;8.30;4.83;;;13.30;99.90;;;;;;5002855;28;20226;-75
2022/05/09 06:12:14;;;;;;;8.53;5.00;;;13.30;99.90;;;;;;5003051;28;20201;-75
2022/05/09 06:14:41;;;;;;;6.57;4.70;;;13.40;99.90;;;;;;4999716;28;20640;-75
2022/05/09 06:17:10;;;;;;;9.67;4.93;;;13.40;99.90;;;;;;4986673;28;20514;-76
2022/05/09 06:19:37;;;;;;;10.33;4.77;;;13.50;99.90;;;;;;4965111;28;20206;-76
2022/05/09 06:22:04;;;;;;;8.60;4.50;;;13.60;99.90;;;;;;4991518;28;20788;-77
2022/05/09 06:24:31;;;;;;;16.33;6.27;;;13.70;99.90;;;;;;5002072;28;20213;-76
2022/05/09 06:26:59;;;;;;;9.10;4.63;;;13.70;99.90;;;;;;4997165;28;20767;-76
2022/05/09 06:29:26;;;;;;;8.63;4.60;;;13.70;99.90;;;;;;5000743;28;20193;-74
2022/05/09 06:31:53;;;;;;;7.70;4.70;;;13.80;99.90;;;;;;4999215;28;20209;-73
2022/05/09 06:34:19;;;;;;;9.53;5.20;;;13.90;99.90;;;;;;5003681;28;20259;-75
2022/05/09 06:36:46;;;;;;;9.60;4.63;;;13.70;99.90;;;;;;5003112;28;20598;-76
2022/05/09 06:39:13;;;;;;;8.17;4.17;;;13.80;99.90;;;;;;5003481;28;20206;-76
2022/05/09 06:41:40;;;;;;;6.77;4.60;;;13.90;99.90;;;;;;4999070;28;20205;-76
2022/05/09 06:44:09;;;;;;;8.87;4.93;;;14.00;99.90;;;;;;5001345;28;20199;-76
2022/05/09 06:46:36;;;;;;;5.67;4.30;;;14.00;99.90;;;;;;5003297;28;20583;-76
2022/05/09 06:49:03;;;;;;;5.50;4.33;;;14.10;99.90;;;;;;5003466;28;20260;-76
2022/05/09 06:51:29;;;;;;;7.87;5.00;;;14.10;99.90;;;;;;5000796;28;20214;-77
2022/05/09 06:53:56;;;;;;;8.33;4.90;;;14.20;99.90;;;;;;5001215;28;20657;-76
2022/05/09 06:56:23;;;;;;;10.77;4.90;;;14.30;99.90;;;;;;4998649;28;20230;-76
2022/05/09 06:58:49;;;;;;;7.20;4.63;;;14.30;99.90;;;;;;5010572;28;20565;-76
2022/05/09 07:01:19;;;;;;;7.97;4.80;;;14.30;99.90;;;;;;5021422;28;20631;-76
2022/05/09 07:03:47;;;;;;;8.27;4.63;;;14.30;99.90;;;;;;5010103;28;20545;-76
2022/05/09 07:06:16;;;;;;;5.90;4.07;;;14.40;99.90;;;;;;5009443;28;20189;-76
2022/05/09 07:08:43;;;;;;;4.77;4.20;;;14.50;99.90;;;;;;5009318;28;20304;-76
2022/05/09 07:11:11;;;;;;;10.53;4.60;;;14.50;99.90;;;;;;5009504;28;20287;-76
2022/05/09 07:13:38;;;;;;;6.13;4.60;;;14.50;99.90;;;;;;5009662;28;20684;-76
2022/05/09 07:16:08;;;;;;;6.33;4.00;;;14.50;99.90;;;;;;5009267;28;20539;-76
2022/05/09 07:18:38;;;;;;;5.13;4.37;;;14.50;99.90;;;;;;5009636;28;20201;-76
2022/05/09 07:21:09;;;;;;;6.97;4.37;;;14.60;99.90;;;;;;5009635;28;20212;-76
2022/05/09 07:23:36;;;;;;;9.37;5.20;;;14.70;99.90;;;;;;5009717;28;20218;-76
2022/05/09 07:26:06;;;;;;;11.43;4.53;;;14.70;99.70;;;;;;5007756;28;20217;-76
2022/05/09 07:28:33;;;;;;;7.27;4.30;;;14.70;99.60;;;;;;5005602;28;20217;-76
2022/05/09 07:31:01;;;;;;;7.00;4.43;;;14.80;99.60;;;;;;5000010;28;20238;-76
2022/05/09 07:33:30;;;;;;;5.87;4.50;;;14.80;99.90;;;;;;5003173;28;20266;-76
2022/05/09 07:35:58;;;;;;;10.40;4.53;;;14.80;99.60;;;;;;5003882;28;20672;-76
2022/05/09 07:38:25;;;;;;;8.03;4.37;;;14.80;99.90;;;;;;4996560;28;20708;-73
2022/05/09 07:40:52;;;;;;;9.17;4.60;;;14.90;99.90;;;;;;4996781;28;20201;-73
2022/05/09 07:43:23;;;;;;;8.63;4.57;;;15.00;99.90;;;;;;5000447;28;20284;-73
2022/05/09 07:45:51;;;;;;;12.00;5.77;;;15.00;99.70;;;;;;5004111;28;20210;-76
2022/05/09 07:48:19;;;;;;;16.30;5.20;;;15.00;99.60;;;;;;4994735;28;20284;-76
2022/05/09 07:50:46;;;;;;;10.60;5.10;;;15.20;99.90;;;;;;4994726;28;20199;-76
2022/05/09 07:53:16;;;;;;;6.77;4.93;;;15.20;99.60;;;;;;5001080;28;20209;-76
2022/05/09 07:55:43;;;;;;;8.70;4.17;;;15.20;99.20;;;;;;4999498;28;20270;-76
2022/05/09 07:58:11;;;;;;;11.23;4.80;;;15.20;99.30;;;;;;5003767;28;20237;-76
2022/05/09 08:00:37;;;;;;;8.30;5.00;;;15.30;99.20;;;;;;4999742;28;20198;-76
2022/05/09 08:03:05;;;;;;;5.80;4.40;;;15.30;99.90;;;;;;5001188;28;20229;-76
2022/05/09 08:05:32;;;;;;;8.30;4.60;;;15.40;99.40;;;;;;4999999;28;20199;-76
2022/05/09 08:07:58;;;;;;;5.33;4.20;;;15.50;99.20;;;;;;4996745;28;20675;-76
2022/05/09 08:10:26;;;;;;;7.07;4.60;;;15.50;99.10;;;;;;4996047;28;20206;-76
2022/05/09 08:12:53;;;;;;;6.57;4.70;;;15.60;98.80;;;;;;4999410;28;20213;-76
2022/05/09 08:15:21;;;;;;;16.00;4.70;;;15.60;99.10;;;;;;4998448;28;20260;-76
2022/05/09 08:17:49;;;;;;;6.70;4.50;;;15.70;99.70;;;;;;4998305;28;20221;-74
2022/05/09 08:20:16;;;;;;;6.10;4.63;;;15.70;99.40;;;;;;4995752;28;20579;-74
2022/05/09 08:22:45;;;;;;;5.33;4.47;;;15.80;99.10;;;;;;4996845;28;20209;-74
2022/05/09 08:25:13;;;;;;;9.67;4.60;;;15.90;98.90;;;;;;4999871;28;20228;-76
2022/05/09 08:27:42;;;;;;;11.33;5.07;;;16.00;99.50;;;;;;4995989;28;20696;-76
2022/05/09 08:30:09;;;;;;;9.03;4.70;;;16.10;99.30;;;;;;4990225;28;20233;-76
2022/05/09 08:32:37;;;;;;;6.17;4.67;;;16.10;98.90;;;;;;5007262;28;20687;-76
2022/05/09 08:35:05;;;;;;;7.00;4.90;;;16.20;98.80;;;;;;5007727;28;20684;-76
2022/05/09 08:37:31;;;;;;;9.17;4.83;;;16.30;98.80;;;;;;5008372;28;20217;-76
2022/05/09 08:39:58;;;;;;;7.17;4.27;;;16.30;98.60;;;;;;5007197;28;20690;-76
2022/05/09 08:42:31;;;;;;;9.10;4.67;;;16.40;98.30;;;;;;5007398;28;20209;-76
2022/05/09 08:45:12;;;;;;;9.10;4.50;;;16.40;98.20;;;;;;5007747;28;20194;-76
2022/05/09 08:48:12;;;;;;;5.70;4.50;;;16.50;97.70;;;;;;5007819;28;20253;-76
2022/05/09 08:50:53;;;;;;;6.77;4.30;;;16.50;97.60;;;;;;5007638;28;20201;-76
2022/05/09 08:53:23;;;;;;;10.73;4.03;;;16.70;97.70;;;;;;5007684;28;20236;-76
2022/05/09 08:55:52;;;;;;;9.30;4.70;;;16.70;97.70;;;;;;5007210;28;20240;-76
2022/05/09 08:58:32;;;;;;;9.57;4.50;;;16.80;97.30;;;;;;5007445;28;20209;-77
2022/05/09 09:01:03;;;;;;;6.30;3.97;;;16.90;96.60;;;;;;5003238;28;20225;-74
2022/05/09 09:03:37;;;;;;;7.97;4.07;;;17.00;96.40;;;;;;5007271;28;20303;-74
2022/05/09 09:06:15;;;;;;;7.40;3.63;;;17.10;96.90;;;;;;5007274;28;20671;-77
2022/05/09 09:08:58;;;;;;;6.77;3.57;;;17.20;96.00;;;;;;5005629;28;20280;-76
2022/05/09 09:11:33;;;;;;;8.87;3.53;;;17.30;96.10;;;;;;4995996;28;20200;-77
2022/05/09 09:14:08;;;;;;;6.97;3.13;;;17.30;96.50;;;;;;4996090;28;20244;-74
2022/05/09 09:16:53;;;;;;;7.17;3.20;;;17.30;96.00;;;;;;4997054;28;20245;-74
2022/05/09 09:19:38;;;;;;;11.33;3.77;;;17.40;95.40;;;;;;4994631;28;20195;-74
2022/05/09 09:22:13;;;;;;;11.20;3.73;;;17.50;94.50;;;;;;5000429;28;20190;-74
2022/05/09 09:24:55;;;;;;;5.87;3.20;;;17.60;94.20;;;;;;4998155;28;20200;-74
2022/05/09 09:27:34;;;;;;;6.40;3.00;;;17.70;94.10;;;;;;4998760;28;20214;-74
2022/05/09 09:30:10;;;;;;;2.90;2.60;;;17.80;93.50;;;;;;4998279;28;20214;-74
2022/05/09 09:32:40;;;;;;;6.93;3.10;;;17.80;92.50;;;;;;4998841;28;20236;-74
2022/05/09 09:35:14;;;;;;;9.93;2.80;;;17.90;92.50;;;;;;4999831;28;20210;-74
2022/05/09 09:37:47;;;;;;;7.37;3.07;;;17.90;92.80;;;;;;4999299;28;20220;-74
2022/05/09 09:40:14;;;;;;;4.00;3.20;;;17.90;92.60;;;;;;4997579;28;20651;-74
2022/05/09 09:42:41;;;;;;;3.63;2.57;;;17.90;91.80;;;;;;5000962;28;20288;-74
2022/05/09 09:45:20;;;;;;;4.83;2.87;;;18.00;92.90;;;;;;4998031;28;20202;-74
2022/05/09 09:47:48;;;;;;;4.57;2.43;;;18.00;92.50;;;;;;4995353;28;20249;-75
2022/05/09 09:50:20;;;;;;;6.03;3.20;;;18.00;92.20;;;;;;4999952;28;20265;-74
2022/05/09 09:52:50;;;;;;;6.47;3.17;;;18.10;91.90;;;;;;4997858;28;20709;-74
2022/05/09 09:55:25;;;;;;;6.03;2.77;;;18.20;91.70;;;;;;4996762;28;20225;-74
2022/05/09 09:57:55;;;;;;;4.93;2.77;;;18.40;91.40;;;;;;4997081;28;20194;-74
2022/05/09 10:00:25;;;;;;;5.77;3.00;;;18.40;91.00;;;;;;5004460;28;20748;-74
2022/05/09 10:02:56;;;;;;;5.83;3.17;;;18.40;89.40;;;;;;4996834;28;20240;-74
2022/05/09 10:05:34;;;;;;;6.63;2.73;;;18.30;88.20;;;;;;4997061;28;20239;-76
2022/05/09 10:08:19;;;;;;;12.00;3.20;;;18.30;90.00;;;;;;4996915;28;20230;-75
2022/05/09 10:10:57;;;;;;;3.30;2.37;;;18.40;89.00;;;;;;4995836;28;20249;-75
2022/05/09 10:13:24;;;;;;;10.40;3.23;;;18.50;90.10;;;;;;4996602;28;20606;-75
2022/05/09 10:16:05;;;;;;;3.47;2.40;;;18.70;90.40;;;;;;4995723;28;20198;-75
2022/05/09 10:18:34;;;;;;;3.50;2.80;;;18.70;88.70;;;;;;4998476;28;20292;-75
2022/05/09 10:21:14;;;;;;;6.43;3.20;;;18.70;84.60;;;;;;4993108;28;20649;-75
2022/05/09 10:26:35;;;;;;;3.80;2.47;;;18.80;87.30;;;;;;4994057;28;20200;-75
2022/05/09 10:29:17;;;;;;;3.50;2.70;;;19.00;87.00;;;;;;5000850;28;20238;-76
2022/05/09 10:31:50;;;;;;;6.30;2.60;;;19.10;88.60;;;;;;5005859;28;20220;-72
2022/05/09 10:34:25;;;;;;;3.93;2.63;;;19.10;88.10;;;;;;5009621;28;20764;-73
2022/05/09 10:36:57;;;;;;;6.53;3.20;;;19.20;86.70;;;;;;4998593;28;20189;-75
2022/05/09 10:39:27;;;;;;;8.37;3.10;;;19.30;86.40;;;;;;4997216;28;20228;-75
2022/05/09 10:41:57;;;;;;;4.43;2.50;;;19.60;86.80;;;;;;5000114;28;20202;-76
2022/05/09 10:44:29;;;;;;;5.23;2.60;;;19.70;84.00;;;;;;5006451;28;20217;-76
2022/05/09 10:47:01;;;;;;;4.10;3.10;;;19.70;82.00;;;;;;5003909;28;20217;-75
2022/05/09 10:49:41;;;;;;;6.00;2.60;;;19.80;82.30;;;;;;5006153;28;20307;-75
2022/05/09 10:52:22;;;;;;;8.73;3.00;;;19.80;81.50;;;;;;5004025;28;20558;-76
2022/05/09 10:54:53;;;;;;;4.20;2.60;;;19.80;81.10;;;;;;5004318;28;20281;-76
2022/05/09 10:57:29;;;;;;;4.63;2.70;;;19.80;80.10;;;;;;4999765;28;21041;-76
2022/05/09 11:00:04;;;;;;;4.40;2.83;;;19.80;81.30;;;;;;4998459;28;20194;-75
2022/05/09 11:02:34;;;;;;;5.30;3.00;;;19.90;81.50;;;;;;5008296;28;20711;-76
2022/05/09 11:05:03;;;;;;;13.03;3.50;;;20.00;81.60;;;;;;5009408;28;20214;-76
2022/05/09 11:07:39;;;;;;;3.43;2.40;;;20.00;81.30;;;;;;5005152;28;20764;-76
2022/05/09 11:10:23;;;;;;;6.43;3.00;;;20.20;83.70;;;;;;5001821;28;20213;-76
2022/05/09 11:13:21;;;;;;;5.00;2.17;;;20.30;82.60;;;;;;4997498;28;20661;-76
2022/05/09 11:15:59;;;;;;;6.93;2.70;;;20.40;81.60;;;;;;4993286;28;20194;-76
2022/05/09 11:18:34;;;;;;;3.23;2.27;;;20.60;82.40;;;;;;4997763;28;20230;-76
2022/05/09 11:21:20;;;;;;;4.13;2.60;;;20.90;83.30;;;;;;5003390;28;20213;-76
2022/05/09 11:23:56;;;;;;;5.50;3.20;;;21.00;81.40;;;;;;5006415;28;20507;-76
2022/05/09 11:26:31;;;;;;;3.07;2.20;;;21.10;80.40;;;;;;5002963;28;20205;-76
2022/05/09 11:29:25;;;;;;;6.20;2.80;;;21.10;80.20;;;;;;5004980;28;20287;-75
2022/05/09 11:32:03;;;;;;;4.37;2.40;;;21.20;80.00;;;;;;5003009;28;20670;-76
2022/05/09 11:34:48;;;;;;;4.13;2.70;;;21.30;77.90;;;;;;4996852;28;20566;-76
2022/05/09 11:37:23;;;;;;;3.63;2.25;;;21.40;78.00;;;;;;5002445;28;20194;-72
2022/05/09 11:40:03;;;;;;;5.50;2.40;;;21.40;76.40;;;;;;5006328;28;20273;-72
2022/05/09 11:45:41;;;;;;;2.28;2.05;;;21.50;78.30;;;;;;4998594;28;20200;-76
2022/05/09 11:48:19;;;;;;;3.22;2.55;;;21.70;77.60;;;;;;5001635;28;20711;-75
2022/05/09 11:50:58;;;;;;;6.47;2.50;;;21.70;78.30;;;;;;4998181;28;20193;-75
2022/05/09 11:53:30;;;;;;;7.45;2.47;;;21.90;77.30;;;;;;5006926;28;20216;-75
2022/05/09 11:55:57;;;;;;;10.15;3.47;;;21.90;75.20;;;;;;5000172;28;20224;-75
2022/05/09 11:58:26;;;;;;;3.45;2.60;;;22.00;75.30;;;;;;4997923;28;20202;-75
2022/05/09 12:00:54;;;;;;;4.78;2.60;;;22.20;78.50;;;;;;5000883;28;20739;-75
2022/05/09 12:04:05;;;;;;;3.70;2.30;;;22.30;74.10;;;;;;5002143;28;20798;-75
2022/05/09 12:06:35;;;;;;;8.70;2.90;;;22.30;73.70;;;;;;5005524;28;20648;-76
2022/05/09 12:09:08;;;;;;;3.42;2.35;;;22.40;74.30;;;;;;5007859;28;20229;-75
2022/05/09 12:11:46;;;;;;;2.75;2.20;;;22.40;75.60;;;;;;5008476;28;20297;-76
2022/05/09 12:14:42;;;;;;;2.83;2.08;;;22.50;73.10;;;;;;5008147;28;20244;-75
2022/05/09 12:17:22;;;;;;;3.45;2.88;;;22.70;75.00;;;;;;5008577;28;20209;-76
2022/05/09 12:19:49;;;;;;;2.75;2.50;;;22.80;73.70;;;;;;5008406;28;20205;-75
2022/05/09 12:22:38;;;;;;;5.22;2.80;;;22.80;73.30;;;;;;5008248;28;20213;-76
2022/05/09 12:25:07;;;;;;;4.55;2.35;;;22.80;73.40;;;;;;5007320;28;20514;-76
2022/05/09 12:27:47;;;;;;;4.63;2.83;;;22.90;73.30;;;;;;5008133;28;20194;-75
2022/05/09 12:30:45;;;;;;;4.90;2.80;;;23.00;73.60;;;;;;4988464;28;20581;-75
2022/05/09 12:33:18;;;;;;;5.85;2.22;;;23.20;73.10;;;;;;4990670;28;20221;-76
2022/05/09 12:35:46;;;;;;;4.47;2.40;;;23.30;71.40;;;;;;5007484;28;20193;-76
2022/05/09 12:38:13;;;;;;;5.20;2.90;;;23.30;70.00;;;;;;5007529;28;20213;-76
2022/05/09 12:40:40;;;;;;;3.90;2.45;;;23.50;70.40;;;;;;5008127;28;20275;-76
2022/05/09 12:43:10;;;;;;;5.13;2.42;;;23.60;69.00;;;;;;5007348;28;20209;-76
2022/05/09 12:45:40;;;;;;;3.50;2.22;;;23.60;67.60;;;;;;5007428;28;20863;-75
2022/05/09 12:48:10;;;;;;;5.00;2.50;;;23.70;67.60;;;;;;5003270;28;20238;-76
2022/05/09 12:50:43;;;;;;;4.35;2.25;;;23.80;67.60;;;;;;4997009;28;20202;-76
2022/05/09 12:53:12;;;;;;;4.43;2.40;;;23.80;68.60;;;;;;4998002;28;20197;-76
2022/05/09 12:55:58;;;;;;;4.13;2.60;;;23.80;67.30;;;;;;5000179;28;20595;-76
2022/05/09 12:58:32;;;;;;;3.38;2.17;;;23.80;67.40;;;;;;5002018;28;20767;-76
2022/05/09 13:01:08;;;;;;;3.45;2.40;;;23.90;67.40;;;;;;5018939;28;20201;-76
2022/05/09 13:03:43;;;;;;;3.08;2.40;;;24.00;65.90;;;;;;4997637;28;20605;-76
2022/05/09 13:06:14;;;;;;;5.10;2.65;;;24.00;66.90;;;;;;5007574;28;20201;-76
2022/05/09 13:08:41;;;;;;;5.47;2.50;;;24.00;65.70;;;;;;5007847;28;20237;-76
2022/05/09 13:11:14;;;;;;;4.43;2.60;;;24.10;66.10;;;;;;5028091;28;20208;-76
2022/05/09 13:13:45;;;;;;;3.63;2.28;;;24.30;66.60;;;;;;5020599;28;20251;-76
2022/05/09 13:16:20;;;;;;;50.10;5.50;;;24.50;66.00;;;;;;5007798;28;20237;-76